createdAt,value
2022-12-04T00:01:14.459Z,102108.63
2022-12-04T00:03:42.061Z,102108.47
2022-12-04T00:06:11.682Z,102104.22
2022-12-04T00:08:39.350Z,102103.47
2022-12-04T00:11:06.999Z,102097.47
2022-12-04T00:13:34.408Z,102096.19
2022-12-04T00:16:01.357Z,102094.25
2022-12-04T00:18:27.863Z,102095.16
2022-12-04T00:20:54.544Z,102101.78
2022-12-04T00:23:21.075Z,102104.84
2022-12-04T00:25:48.831Z,102112.69
2022-12-04T00:28:17.045Z,102111.81
2022-12-04T00:30:45.225Z,102111.06
2022-12-04T00:33:13.258Z,102114.69
2022-12-04T00:35:42.961Z,102117.81
2022-12-04T00:38:09.912Z,102112.44
2022-12-04T00:40:36.450Z,102116.91
2022-12-04T00:43:03.285Z,102112.25
2022-12-04T00:45:29.818Z,102113.78
2022-12-04T00:47:56.290Z,102113.41
2022-12-04T00:50:22.959Z,102119.56
2022-12-04T00:52:49.402Z,102111.84
2022-12-04T00:55:15.866Z,102099.50
2022-12-04T00:57:42.383Z,102116.03
2022-12-04T01:00:09.174Z,102104.97
2022-12-04T01:02:35.782Z,102101.53
2022-12-04T01:05:02.360Z,102101.25
2022-12-04T01:07:28.902Z,102108.66
2022-12-04T01:09:55.562Z,102101.47
2022-12-04T01:12:22.245Z,102098.38
2022-12-04T01:14:48.752Z,102091.75
2022-12-04T01:17:15.215Z,102096.00
2022-12-04T01:19:41.701Z,102098.88
2022-12-04T01:22:08.176Z,102088.22
2022-12-04T01:24:34.632Z,102091.63
2022-12-04T01:27:01.115Z,102084.47
2022-12-04T01:29:27.632Z,102086.50
2022-12-04T01:31:54.130Z,102089.03
2022-12-04T01:34:20.630Z,102092.72
2022-12-04T01:36:48.363Z,102090.84
2022-12-04T01:39:14.766Z,102085.59
2022-12-04T01:41:41.211Z,102090.75
2022-12-04T01:44:25.761Z,102080.75
2022-12-04T01:46:57.064Z,102094.00
2022-12-04T01:49:46.674Z,102083.81
2022-12-04T01:52:20.738Z,102087.47
2022-12-04T01:54:57.243Z,102085.78
2022-12-04T01:57:26.210Z,102088.25
2022-12-04T01:59:57.918Z,102075.47
2022-12-04T02:02:29.409Z,102087.66
2022-12-04T02:04:56.374Z,102075.97
2022-12-04T02:07:22.886Z,102078.34
2022-12-04T02:09:55.822Z,102071.47
2022-12-04T02:12:41.519Z,102079.94
2022-12-04T02:15:17.105Z,102077.34
2022-12-04T02:18:11.575Z,102068.72
2022-12-04T02:20:50.082Z,102065.38
2022-12-04T02:23:20.975Z,102075.88
2022-12-04T02:26:02.002Z,102065.66
2022-12-04T02:28:47.194Z,102068.84
2022-12-04T02:31:23.158Z,102063.53
2022-12-04T02:34:10.967Z,102062.00
2022-12-04T02:36:45.122Z,102067.63
2022-12-04T02:39:19.072Z,102060.06
2022-12-04T02:41:54.064Z,102069.38
2022-12-04T02:44:22.540Z,102065.06
2022-12-04T02:46:52.964Z,102056.38
2022-12-04T02:49:27.419Z,102062.31
2022-12-04T02:51:55.353Z,102055.34
2022-12-04T02:54:26.276Z,102048.66
2022-12-04T02:56:53.949Z,102050.94
2022-12-04T02:59:24.994Z,102041.13
2022-12-04T03:01:54.448Z,102041.69
2022-12-04T03:04:23.638Z,102047.59
2022-12-04T03:06:56.201Z,102040.69
2022-12-04T03:09:48.545Z,102052.22
2022-12-04T03:12:29.619Z,102052.41
2022-12-04T03:15:23.678Z,102049.34
2022-12-04T03:17:55.384Z,102055.19
2022-12-04T03:20:22.317Z,102056.25
2022-12-04T03:22:52.365Z,102055.06
2022-12-04T03:25:18.875Z,102052.56
2022-12-04T03:27:58.365Z,102053.28
2022-12-04T03:30:24.844Z,102057.88
2022-12-04T03:33:11.559Z,102062.50
2022-12-04T03:35:52.560Z,102057.66
2022-12-04T03:38:25.658Z,102051.00
2022-12-04T03:41:06.039Z,102055.34
2022-12-04T03:43:38.096Z,102066.25
2022-12-04T03:46:37.018Z,102065.06
2022-12-04T03:49:13.151Z,102066.13
2022-12-04T03:51:55.251Z,102060.22
2022-12-04T03:54:27.213Z,102065.59
2022-12-04T03:56:57.481Z,102071.28
2022-12-04T03:59:29.926Z,102070.94
2022-12-04T04:01:58.169Z,102062.50
2022-12-04T04:04:33.909Z,102064.44
2022-12-04T04:07:09.641Z,102060.69
2022-12-04T04:09:40.363Z,102060.13
2022-12-04T04:12:21.126Z,102061.72
2022-12-04T04:15:09.658Z,102060.72
2022-12-04T04:17:58.194Z,102064.59
2022-12-04T04:20:48.962Z,102054.97
2022-12-04T04:23:36.595Z,102054.25
2022-12-04T04:26:04.488Z,102057.28
2022-12-04T04:28:30.956Z,102055.38
2022-12-04T04:31:05.791Z,102052.22
2022-12-04T04:33:35.856Z,102055.94
2022-12-04T04:36:15.587Z,102054.59
2022-12-04T04:39:07.692Z,102058.66
2022-12-04T04:41:41.751Z,102056.84
2022-12-04T04:44:15.515Z,102053.00
2022-12-04T04:46:46.274Z,102049.66
2022-12-04T04:49:14.151Z,102050.81
2022-12-04T04:51:40.826Z,102049.03
2022-12-04T04:54:10.496Z,102045.88
2022-12-04T04:56:44.471Z,102049.53
2022-12-04T04:59:11.416Z,102057.63
2022-12-04T05:01:39.148Z,102056.06
2022-12-04T05:04:06.509Z,102060.59
2022-12-04T05:06:33.053Z,102056.38
2022-12-04T05:09:00.047Z,102060.03
2022-12-04T05:11:26.490Z,102059.03
2022-12-04T05:13:53.020Z,102054.34
2022-12-04T05:16:19.648Z,102054.59
2022-12-04T05:19:06.156Z,102053.59
2022-12-04T05:21:33.300Z,102055.78
2022-12-04T05:24:00.061Z,102059.16
2022-12-04T05:26:26.595Z,102061.59
2022-12-04T05:28:53.055Z,102058.59
2022-12-04T05:31:19.781Z,102057.88
2022-12-04T05:33:46.264Z,102057.97
2022-12-04T05:36:13.420Z,102064.28
2022-12-04T05:38:39.897Z,102066.84
2022-12-04T05:41:06.686Z,102059.94
2022-12-04T05:43:33.545Z,102069.84
2022-12-04T05:46:07.778Z,102074.56
2022-12-04T05:48:35.577Z,102078.84
2022-12-04T05:51:09.882Z,102077.94
2022-12-04T05:53:37.034Z,102076.16
2022-12-04T05:56:04.789Z,102081.06
2022-12-04T05:58:33.739Z,102071.81
2022-12-04T06:01:00.187Z,102079.81
2022-12-04T06:03:26.656Z,102077.75
2022-12-04T06:05:53.144Z,102083.03
2022-12-04T06:08:19.643Z,102080.75
2022-12-04T06:10:46.251Z,102082.19
2022-12-04T06:13:12.720Z,102077.09
2022-12-04T06:15:40.074Z,102079.16
2022-12-04T06:18:06.816Z,102082.72
2022-12-04T06:20:33.902Z,102088.16
2022-12-04T06:23:00.445Z,102091.28
2022-12-04T06:25:26.952Z,102090.84
2022-12-04T06:27:53.450Z,102080.09
2022-12-04T06:30:19.959Z,102076.09
2022-12-04T06:32:46.387Z,102091.44
2022-12-04T06:35:12.863Z,102080.84
2022-12-04T06:37:39.386Z,102077.34
2022-12-04T06:40:06.589Z,102077.25
2022-12-04T06:42:33.036Z,102069.03
2022-12-04T06:44:59.520Z,102083.31
2022-12-04T06:47:26.335Z,102077.59
2022-12-04T06:49:53.042Z,102084.09
2022-12-04T06:52:19.616Z,102094.09
2022-12-04T06:54:46.165Z,102085.81
2022-12-04T06:57:12.612Z,102097.41
2022-12-04T06:59:39.204Z,102094.41
2022-12-04T07:02:05.717Z,102084.31
2022-12-04T07:04:32.167Z,102088.00
2022-12-04T07:06:58.674Z,102092.44
2022-12-04T07:09:25.113Z,102091.31
2022-12-04T07:11:53.037Z,102088.38
2022-12-04T07:14:19.469Z,102085.50
2022-12-04T07:16:46.022Z,102093.59
2022-12-04T07:19:14.150Z,102092.94
2022-12-04T07:21:41.395Z,102088.88
2022-12-04T07:24:08.127Z,102089.97
2022-12-04T07:26:34.607Z,102086.88
2022-12-04T07:29:01.129Z,102087.00
2022-12-04T07:31:29.568Z,102089.38
2022-12-04T07:33:57.370Z,102090.47
2022-12-04T07:36:24.882Z,102088.56
2022-12-04T07:38:51.803Z,102097.38
2022-12-04T07:41:19.205Z,102086.16
2022-12-04T07:43:45.962Z,102097.94
2022-12-04T07:46:15.504Z,102096.13
2022-12-04T07:48:42.126Z,102096.91
2022-12-04T07:51:17.316Z,102099.81
2022-12-04T07:53:44.614Z,102099.09
2022-12-04T07:56:13.265Z,102099.69
2022-12-04T07:58:40.397Z,102102.19
2022-12-04T08:01:20.980Z,102095.63
2022-12-04T08:03:49.235Z,102100.88
2022-12-04T08:06:20.507Z,102101.44
2022-12-04T08:08:47.733Z,102103.41
2022-12-04T08:11:17.131Z,102095.31
2022-12-04T08:13:44.056Z,102096.13
2022-12-04T08:16:12.127Z,102103.59
2022-12-04T08:18:38.683Z,102089.13
2022-12-04T08:21:14.027Z,102090.34
2022-12-04T08:23:42.042Z,102096.66
2022-12-04T08:26:09.143Z,102093.81
2022-12-04T08:28:36.498Z,102093.50
2022-12-04T08:31:13.739Z,102094.13
2022-12-04T08:33:41.138Z,102092.94
2022-12-04T08:36:09.902Z,102099.59
2022-12-04T08:38:36.947Z,102094.00
2022-12-04T08:41:08.383Z,102099.19
2022-12-04T08:43:34.966Z,102092.66
2022-12-04T08:46:03.767Z,102101.22
2022-12-04T08:48:30.609Z,102098.72
2022-12-04T08:50:57.141Z,102107.97
2022-12-04T08:53:24.203Z,102099.53
2022-12-04T08:55:51.380Z,102095.63
2022-12-04T08:58:18.698Z,102094.66
2022-12-04T09:00:45.873Z,102104.75
2022-12-04T09:03:17.815Z,102099.13
2022-12-04T09:05:45.963Z,102103.63
2022-12-04T09:08:16.946Z,102102.84
2022-12-04T09:10:44.320Z,102099.66
2022-12-04T09:13:10.789Z,102100.00
2022-12-04T09:15:40.578Z,102102.59
2022-12-04T09:18:08.385Z,102100.53
2022-12-04T09:20:35.244Z,102103.47
2022-12-04T09:23:04.317Z,102099.56
2022-12-04T09:25:32.219Z,102098.94
2022-12-04T09:27:58.685Z,102105.13
2022-12-04T09:30:25.160Z,102095.72
2022-12-04T09:32:51.675Z,102105.44
2022-12-04T09:35:18.239Z,102106.25
2022-12-04T09:37:44.784Z,102106.50
2022-12-04T09:41:06.964Z,102097.31
2022-12-04T09:43:56.403Z,102103.31
2022-12-04T09:46:29.771Z,102096.19
2022-12-04T09:48:59.019Z,102105.50
2022-12-04T09:51:26.467Z,102101.97
2022-12-04T09:53:59.395Z,102097.31
2022-12-04T09:56:29.233Z,102099.13
2022-12-04T09:59:11.252Z,102096.59
2022-12-04T10:01:47.154Z,102095.03
2022-12-04T10:04:15.742Z,102104.13
2022-12-04T10:07:19.473Z,102088.06
2022-12-04T10:09:52.863Z,102081.50
2022-12-04T10:12:29.870Z,102089.56
2022-12-04T10:15:19.038Z,102086.63
2022-12-04T10:17:54.647Z,102095.25
2022-12-04T10:20:45.849Z,102096.72
2022-12-04T10:23:31.133Z,102109.06
2022-12-04T10:25:57.727Z,102096.72
2022-12-04T10:28:41.740Z,102101.06
2022-12-04T10:31:13.916Z,102088.81
2022-12-04T10:33:56.239Z,102085.75
2022-12-04T10:36:25.507Z,102082.78
2022-12-04T10:38:59.194Z,102073.47
2022-12-04T10:41:41.036Z,102078.81
2022-12-04T10:44:13.808Z,102083.50
2022-12-04T10:46:45.738Z,102076.72
2022-12-04T10:49:20.193Z,102072.50
2022-12-04T10:51:47.341Z,102072.31
2022-12-04T10:54:31.472Z,102058.59
2022-12-04T10:57:00.495Z,102059.47
2022-12-04T10:59:28.213Z,102052.13
2022-12-04T11:02:21.193Z,102063.25
2022-12-04T11:04:56.993Z,102051.91
2022-12-04T11:07:26.356Z,102050.50
2022-12-04T11:10:26.270Z,102047.28
2022-12-04T11:13:01.302Z,102036.44
2022-12-04T11:15:28.178Z,102032.97
2022-12-04T11:17:54.686Z,102035.66
2022-12-04T11:20:26.551Z,102039.38
2022-12-04T11:22:57.777Z,102037.03
2022-12-04T11:25:31.190Z,102032.59
2022-12-04T11:28:00.432Z,102033.75
2022-12-04T11:30:35.858Z,102029.66
2022-12-04T11:33:03.492Z,102025.78
2022-12-04T11:35:30.739Z,102016.53
2022-12-04T11:38:12.797Z,102022.34
2022-12-04T11:40:39.474Z,102025.81
2022-12-04T11:43:13.939Z,102011.50
2022-12-04T11:45:40.672Z,102011.03
2022-12-04T11:48:16.113Z,102011.72
2022-12-04T11:51:06.198Z,102012.38
2022-12-04T11:53:54.242Z,102007.25
2022-12-04T11:56:34.565Z,102003.47
2022-12-04T11:59:30.305Z,101995.53
2022-12-04T12:02:17.057Z,101992.53
2022-12-04T12:04:55.783Z,101991.72
2022-12-04T12:07:40.791Z,101991.38
2022-12-04T12:10:29.946Z,101988.97
2022-12-04T12:13:02.700Z,101993.50
2022-12-04T12:15:57.334Z,102001.13
2022-12-04T12:18:38.243Z,101993.56
2022-12-04T12:21:27.219Z,101987.72
2022-12-04T12:24:20.775Z,101989.88
2022-12-04T12:27:25.601Z,101987.22
2022-12-04T12:30:04.787Z,101984.50
2022-12-04T12:33:00.414Z,101983.13
2022-12-04T12:35:50.617Z,101991.88
2022-12-04T12:38:27.019Z,101983.28
2022-12-04T12:40:57.535Z,101981.03
2022-12-04T12:43:31.038Z,101975.56
2022-12-04T12:46:08.528Z,101981.75
2022-12-04T12:48:58.413Z,101974.78
2022-12-04T12:51:43.843Z,101980.91
2022-12-04T12:54:34.809Z,101975.22
2022-12-04T12:57:13.683Z,101976.22
2022-12-04T12:59:47.895Z,101972.53
2022-12-04T13:02:22.808Z,101973.88
2022-12-04T13:04:51.059Z,101971.50
2022-12-04T13:07:17.666Z,101963.59
2022-12-04T13:09:50.760Z,101963.25
2022-12-04T13:12:18.646Z,101963.13
2022-12-04T13:14:49.043Z,101962.94
2022-12-04T13:17:37.515Z,101968.88
2022-12-04T13:20:17.062Z,101965.53
2022-12-04T13:22:58.896Z,101956.94
2022-12-04T13:25:53.004Z,101959.88
2022-12-04T13:29:01.055Z,101952.28
2022-12-04T13:31:43.298Z,101954.28
2022-12-04T13:34:09.757Z,101957.94
2022-12-04T13:36:51.532Z,101947.16
2022-12-04T13:39:28.030Z,101943.97
2022-12-04T13:42:02.540Z,101938.94
2022-12-04T13:44:29.973Z,101935.25
2022-12-04T13:46:59.250Z,101934.09
2022-12-04T13:49:27.495Z,101945.53
2022-12-04T13:51:56.520Z,101942.91
2022-12-04T13:54:24.790Z,101937.28
2022-12-04T13:56:53.880Z,101934.00
2022-12-04T13:59:30.975Z,101928.59
2022-12-04T14:02:04.955Z,101936.81
2022-12-04T14:04:46.275Z,101925.84
2022-12-04T14:07:42.812Z,101942.53
2022-12-04T14:10:15.381Z,101927.78
2022-12-04T14:12:49.486Z,101921.78
2022-12-04T14:15:27.517Z,101931.41
2022-12-04T14:18:03.308Z,101927.00
2022-12-04T14:20:32.235Z,101920.53
2022-12-04T14:23:26.732Z,101928.47
2022-12-04T14:25:58.793Z,101916.19
2022-12-04T14:28:27.764Z,101919.88
2022-12-04T14:31:13.406Z,101922.03
2022-12-04T14:33:44.705Z,101924.28
2022-12-04T14:36:18.971Z,101915.88
2022-12-04T14:38:47.930Z,101917.97
2022-12-04T14:41:14.594Z,101917.22
2022-12-04T14:43:44.736Z,101920.75
2022-12-04T14:46:26.648Z,101922.38
2022-12-04T14:49:28.555Z,101936.22
2022-12-04T14:52:07.787Z,101931.72
2022-12-04T14:55:01.239Z,101926.66
2022-12-04T14:57:49.213Z,101937.19
2022-12-04T15:00:18.325Z,101931.03
2022-12-04T15:02:46.328Z,101935.84
2022-12-04T15:05:20.240Z,101939.25
2022-12-04T15:07:49.503Z,101939.41
2022-12-04T15:10:46.996Z,101935.78
2022-12-04T15:13:25.404Z,101939.25
2022-12-04T15:15:51.972Z,101939.63
2022-12-04T15:18:18.613Z,101936.06
2022-12-04T15:20:47.947Z,101937.94
2022-12-04T15:23:17.461Z,101937.78
2022-12-04T15:25:46.213Z,101943.47
2022-12-04T15:28:17.292Z,101937.78
2022-12-04T15:30:44.168Z,101930.59
2022-12-04T15:33:21.523Z,101937.25
2022-12-04T15:35:54.292Z,101940.38
2022-12-04T15:38:20.967Z,101932.31
2022-12-04T15:40:54.559Z,101939.41
2022-12-04T15:43:32.636Z,101934.22
2022-12-04T15:45:59.372Z,101934.97
2022-12-04T15:48:30.832Z,101926.81
2022-12-04T15:51:06.303Z,101938.63
2022-12-04T15:53:36.626Z,101933.63
2022-12-04T15:56:05.982Z,101924.47
2022-12-04T15:58:38.310Z,101916.78
2022-12-04T16:01:10.415Z,101918.53
2022-12-04T16:03:42.967Z,101920.84
2022-12-04T16:06:26.750Z,101911.28
2022-12-04T16:08:54.077Z,101914.22
2022-12-04T16:11:20.499Z,101913.13
2022-12-04T16:14:08.720Z,101913.22
2022-12-04T16:16:37.087Z,101904.41
2022-12-04T16:19:08.992Z,101903.28
2022-12-04T16:21:35.674Z,101907.81
2022-12-04T16:24:03.840Z,101904.00
2022-12-04T16:26:30.518Z,101902.25
2022-12-04T16:28:57.030Z,101902.69
2022-12-04T16:31:23.895Z,101910.78
2022-12-04T16:33:50.394Z,101900.81
2022-12-04T16:36:17.051Z,101895.00
2022-12-04T16:38:43.515Z,101896.66
2022-12-04T16:41:14.745Z,101893.03
2022-12-04T16:43:41.419Z,101898.56
2022-12-04T16:46:13.312Z,101891.06
2022-12-04T16:48:41.425Z,101896.72
2022-12-04T16:51:15.472Z,101903.59
2022-12-04T16:53:41.906Z,101899.06
2022-12-04T16:56:09.056Z,101895.00
2022-12-04T16:58:36.228Z,101898.56
2022-12-04T17:01:03.914Z,101902.81
2022-12-04T17:03:32.421Z,101894.50
2022-12-04T17:06:00.494Z,101900.38
2022-12-04T17:08:27.617Z,101905.50
2022-12-04T17:10:54.556Z,101900.75
2022-12-04T17:13:21.660Z,101906.34
2022-12-04T17:15:48.863Z,101914.22
2022-12-04T17:18:20.716Z,101905.47
2022-12-04T17:20:47.881Z,101911.88
2022-12-04T17:23:14.399Z,101911.50
2022-12-04T17:25:41.009Z,101917.56
2022-12-04T17:28:08.287Z,101926.66
2022-12-04T17:30:36.486Z,101927.69
2022-12-04T17:33:04.581Z,101914.69
2022-12-04T17:35:31.116Z,101919.41
2022-12-04T17:38:03.817Z,101919.53
2022-12-04T17:40:32.419Z,101911.41
2022-12-04T17:42:59.479Z,101926.94
2022-12-04T17:45:26.040Z,101927.22
2022-12-04T17:47:52.482Z,101918.69
2022-12-04T17:50:18.921Z,101921.72
2022-12-04T17:52:45.378Z,101919.97
2022-12-04T17:55:12.179Z,101921.78
2022-12-04T17:57:41.951Z,101924.03
2022-12-04T18:00:09.253Z,101917.72
2022-12-04T18:02:36.602Z,101921.47
2022-12-04T18:05:03.353Z,101919.13
2022-12-04T18:07:31.185Z,101920.75
2022-12-04T18:09:57.985Z,101921.44
2022-12-04T18:12:24.953Z,101924.59
2022-12-04T18:14:51.463Z,101933.31
2022-12-04T18:17:20.697Z,101926.19
2022-12-04T18:19:47.235Z,101932.88
2022-12-04T18:22:13.724Z,101917.06
2022-12-04T18:24:40.262Z,101926.63
2022-12-04T18:27:07.706Z,101930.13
2022-12-04T18:29:34.218Z,101934.19
2022-12-04T18:32:00.887Z,101935.38
2022-12-04T18:34:27.416Z,101931.13
2022-12-04T18:36:53.981Z,101939.63
2022-12-04T18:39:22.795Z,101926.13
2022-12-04T18:41:49.574Z,101935.28
2022-12-04T18:44:17.387Z,101928.00
2022-12-04T18:46:44.073Z,101926.25
2022-12-04T18:49:11.112Z,101925.38
2022-12-04T18:51:39.859Z,101926.91
2022-12-04T18:54:26.730Z,101930.34
2022-12-04T18:56:53.196Z,101926.66
2022-12-04T18:59:22.238Z,101924.06
2022-12-04T19:01:52.224Z,101928.97
2022-12-04T19:04:21.021Z,101930.34
2022-12-04T19:06:50.342Z,101928.59
2022-12-04T19:09:19.869Z,101932.19
2022-12-04T19:11:46.631Z,101936.50
2022-12-04T19:14:22.744Z,101944.69
2022-12-04T19:16:49.955Z,101938.00
2022-12-04T19:19:16.929Z,101942.28
2022-12-04T19:21:43.652Z,101940.72
2022-12-04T19:24:10.881Z,101939.81
2022-12-04T19:26:37.508Z,101946.53
2022-12-04T19:29:04.948Z,101940.56
2022-12-04T19:31:33.936Z,101947.19
2022-12-04T19:34:01.058Z,101948.66
2022-12-04T19:36:29.655Z,101953.94
2022-12-04T19:38:59.812Z,101951.59
2022-12-04T19:41:30.220Z,101947.22
2022-12-04T19:43:59.205Z,101948.16
2022-12-04T19:46:28.451Z,101953.66
2022-12-04T19:48:58.351Z,101950.75
2022-12-04T19:51:25.548Z,101953.59
2022-12-04T19:53:53.568Z,101945.16
2022-12-04T19:56:24.449Z,101950.75
2022-12-04T19:58:52.497Z,101954.09
2022-12-04T20:01:21.684Z,101946.63
2022-12-04T20:03:48.468Z,101956.72
2022-12-04T20:06:18.167Z,101953.94
2022-12-04T20:08:45.503Z,101955.31
2022-12-04T20:11:17.654Z,101952.41
2022-12-04T20:13:45.903Z,101950.00
2022-12-04T20:16:14.441Z,101948.81
2022-12-04T20:18:42.502Z,101948.84
2022-12-04T20:21:13.324Z,101959.13
2022-12-04T20:23:41.738Z,101944.16
2022-12-04T20:26:10.387Z,101946.19
2022-12-04T20:28:37.314Z,101938.84
2022-12-04T20:31:19.307Z,101944.31
2022-12-04T20:33:47.719Z,101941.84
2022-12-04T20:36:15.792Z,101940.56
2022-12-04T20:38:42.599Z,101937.41
2022-12-04T20:41:10.468Z,101937.63
2022-12-04T20:43:37.200Z,101944.53
2022-12-04T20:46:16.188Z,101941.25
2022-12-04T20:48:49.509Z,101935.28
2022-12-04T20:51:21.653Z,101928.06
2022-12-04T20:53:49.762Z,101943.38
2022-12-04T20:56:17.454Z,101929.22
2022-12-04T20:58:44.718Z,101930.59
2022-12-04T21:01:17.364Z,101926.81
2022-12-04T21:03:44.556Z,101923.38
2022-12-04T21:06:21.334Z,101926.81
2022-12-04T21:08:54.283Z,101915.22
2022-12-04T21:11:25.043Z,101908.75
2022-12-04T21:14:11.301Z,101907.47
2022-12-04T21:16:37.808Z,101905.44
2022-12-04T21:19:05.884Z,101902.00
2022-12-04T21:21:32.927Z,101903.41
2022-12-04T21:23:59.706Z,101898.78
2022-12-04T21:26:31.217Z,101896.97
2022-12-04T21:28:58.415Z,101901.63
2022-12-04T21:31:28.038Z,101909.91
2022-12-04T21:33:56.052Z,101899.44
2022-12-04T21:36:22.784Z,101890.38
2022-12-04T21:38:49.359Z,101893.53
2022-12-04T21:41:34.774Z,101898.13
2022-12-04T21:44:04.679Z,101895.31
2022-12-04T21:46:32.133Z,101893.25
2022-12-04T21:48:59.443Z,101906.59
2022-12-04T21:51:55.739Z,101896.31
2022-12-04T21:54:13.675Z,101899.97
2022-12-04T21:56:40.111Z,101894.06
2022-12-04T21:59:07.357Z,101889.88
2022-12-04T22:01:33.900Z,101898.38
2022-12-04T22:04:00.387Z,101891.41
2022-12-04T22:06:28.489Z,101880.56
2022-12-04T22:08:55.674Z,101888.91
2022-12-04T22:11:22.670Z,101870.88
2022-12-04T22:13:49.172Z,101889.56
2022-12-04T22:16:17.246Z,101888.63
2022-12-04T22:18:43.827Z,101883.25
2022-12-04T22:21:13.687Z,101881.94
2022-12-04T22:23:40.815Z,101880.84
2022-12-04T22:26:08.791Z,101870.94
2022-12-04T22:28:35.607Z,101875.13
2022-12-04T22:31:03.626Z,101864.63
2022-12-04T22:33:30.535Z,101875.66
2022-12-04T22:36:02.503Z,101872.44
2022-12-04T22:38:29.371Z,101876.28
2022-12-04T22:40:59.174Z,101881.13
2022-12-04T22:43:26.583Z,101874.16
2022-12-04T22:45:53.076Z,101869.31
2022-12-04T22:48:19.527Z,101874.28
2022-12-04T22:50:45.987Z,101871.16
2022-12-04T22:53:13.000Z,101865.63
2022-12-04T22:55:39.862Z,101865.97
2022-12-04T22:58:06.347Z,101863.38
2022-12-04T23:00:32.762Z,101855.16
2022-12-04T23:02:59.300Z,101854.53
2022-12-04T23:05:25.834Z,101841.78
2022-12-04T23:07:52.464Z,101846.56
2022-12-04T23:10:18.999Z,101847.97
2022-12-04T23:12:45.480Z,101848.41
2022-12-04T23:15:11.886Z,101849.84
2022-12-04T23:17:38.331Z,101843.47
2022-12-04T23:20:05.432Z,101833.78
2022-12-04T23:22:31.891Z,101836.56
2022-12-04T23:24:58.331Z,101841.91
2022-12-04T23:27:24.781Z,101836.81
2022-12-04T23:29:53.675Z,101830.19
2022-12-04T23:32:20.472Z,101826.53
2022-12-04T23:34:46.883Z,101827.94
2022-12-04T23:37:13.385Z,101824.59
2022-12-04T23:39:39.795Z,101831.53
2022-12-04T23:42:06.266Z,101836.22
2022-12-04T23:44:32.732Z,101827.06
2022-12-04T23:46:59.298Z,101832.44
2022-12-04T23:49:25.862Z,101839.88
2022-12-04T23:51:52.388Z,101833.53
2022-12-04T23:54:18.815Z,101833.97
2022-12-04T23:56:45.383Z,101832.00
2022-12-04T23:59:11.823Z,101833.78
